sensor_id;sensor_type;location;lat;lon;timestamp;P1;durP1;ratioP1;P2;durP2;ratioP2
52102;SDS011;38101;53.126;6.878;2023-08-12T00:00:19;5.30;;;3.55;;
52102;SDS011;38101;53.126;6.878;2023-08-12T00:02:45;5.43;;;3.20;;
52102;SDS011;38101;53.126;6.878;2023-08-12T00:05:12;6.18;;;3.63;;
52102;SDS011;38101;53.126;6.878;2023-08-12T00:07:39;6.70;;;3.20;;
52102;SDS011;38101;53.126;6.878;2023-08-12T00:10:09;5.82;;;3.60;;
52102;SDS011;38101;53.126;6.878;2023-08-12T00:12:36;6.82;;;3.65;;
52102;SDS011;38101;53.126;6.878;2023-08-12T00:15:03;5.45;;;3.63;;
52102;SDS011;38101;53.126;6.878;2023-08-12T00:17:31;7.80;;;5.00;;
52102;SDS011;38101;53.126;6.878;2023-08-12T00:19:58;7.07;;;5.45;;
52102;SDS011;38101;53.126;6.878;2023-08-12T00:22:24;9.02;;;7.38;;
52102;SDS011;38101;53.126;6.878;2023-08-12T00:24:50;13.43;;;10.43;;
52102;SDS011;38101;53.126;6.878;2023-08-12T00:27:17;12.63;;;10.68;;
52102;SDS011;38101;53.126;6.878;2023-08-12T00:29:43;13.48;;;11.35;;
52102;SDS011;38101;53.126;6.878;2023-08-12T00:32:09;13.25;;;9.70;;
52102;SDS011;38101;53.126;6.878;2023-08-12T00:34:34;14.45;;;10.15;;
52102;SDS011;38101;53.126;6.878;2023-08-12T00:37:00;10.90;;;7.53;;
52102;SDS011;38101;53.126;6.878;2023-08-12T00:39:26;10.80;;;6.68;;
52102;SDS011;38101;53.126;6.878;2023-08-12T00:41:52;8.30;;;6.32;;
52102;SDS011;38101;53.126;6.878;2023-08-12T00:44:18;9.45;;;5.50;;
52102;SDS011;38101;53.126;6.878;2023-08-12T00:46:43;9.00;;;5.40;;
52102;SDS011;38101;53.126;6.878;2023-08-12T00:49:10;6.93;;;4.70;;
52102;SDS011;38101;53.126;6.878;2023-08-12T00:51:37;6.15;;;3.90;;
52102;SDS011;38101;53.126;6.878;2023-08-12T00:54:07;5.78;;;3.25;;
52102;SDS011;38101;53.126;6.878;2023-08-12T00:56:38;5.30;;;3.50;;
52102;SDS011;38101;53.126;6.878;2023-08-12T00:59:04;6.68;;;3.80;;
52102;SDS011;38101;53.126;6.878;2023-08-12T01:01:32;5.30;;;3.13;;
52102;SDS011;38101;53.126;6.878;2023-08-12T01:03:58;5.93;;;3.15;;
52102;SDS011;38101;53.126;6.878;2023-08-12T01:06:24;6.40;;;3.47;;
52102;SDS011;38101;53.126;6.878;2023-08-12T01:08:50;5.25;;;3.42;;
52102;SDS011;38101;53.126;6.878;2023-08-12T01:11:20;6.57;;;3.40;;
52102;SDS011;38101;53.126;6.878;2023-08-12T01:13:56;5.20;;;3.13;;
52102;SDS011;38101;53.126;6.878;2023-08-12T01:16:43;6.30;;;3.50;;
52102;SDS011;38101;53.126;6.878;2023-08-12T01:19:22;5.18;;;3.53;;
52102;SDS011;38101;53.126;6.878;2023-08-12T01:21:50;4.70;;;3.25;;
52102;SDS011;38101;53.126;6.878;2023-08-12T01:24:20;7.00;;;4.05;;
52102;SDS011;38101;53.126;6.878;2023-08-12T01:26:47;4.43;;;3.47;;
52102;SDS011;38101;53.126;6.878;2023-08-12T01:29:12;6.65;;;3.55;;
52102;SDS011;38101;53.126;6.878;2023-08-12T01:31:42;6.07;;;3.88;;
52102;SDS011;38101;53.126;6.878;2023-08-12T01:34:46;5.80;;;3.55;;
52102;SDS011;38101;53.126;6.878;2023-08-12T01:37:11;5.80;;;3.78;;
52102;SDS011;38101;53.126;6.878;2023-08-12T01:39:45;6.78;;;3.78;;
52102;SDS011;38101;53.126;6.878;2023-08-12T01:42:13;8.25;;;4.35;;
52102;SDS011;38101;53.126;6.878;2023-08-12T01:44:40;5.82;;;3.85;;
52102;SDS011;38101;53.126;6.878;2023-08-12T01:47:07;5.82;;;4.40;;
52102;SDS011;38101;53.126;6.878;2023-08-12T01:49:34;6.53;;;3.90;;
52102;SDS011;38101;53.126;6.878;2023-08-12T01:51:59;6.55;;;4.35;;
52102;SDS011;38101;53.126;6.878;2023-08-12T01:54:25;7.78;;;4.13;;
52102;SDS011;38101;53.126;6.878;2023-08-12T01:56:51;7.20;;;4.20;;
52102;SDS011;38101;53.126;6.878;2023-08-12T01:59:16;7.07;;;4.20;;
52102;SDS011;38101;53.126;6.878;2023-08-12T02:01:42;6.90;;;4.05;;
52102;SDS011;38101;53.126;6.878;2023-08-12T02:04:08;6.70;;;4.38;;
52102;SDS011;38101;53.126;6.878;2023-08-12T02:06:33;6.40;;;4.43;;
52102;SDS011;38101;53.126;6.878;2023-08-12T02:08:59;6.30;;;4.00;;
52102;SDS011;38101;53.126;6.878;2023-08-12T02:11:25;7.97;;;4.30;;
52102;SDS011;38101;53.126;6.878;2023-08-12T02:13:50;7.05;;;4.40;;
52102;SDS011;38101;53.126;6.878;2023-08-12T02:16:16;6.40;;;4.25;;
52102;SDS011;38101;53.126;6.878;2023-08-12T02:18:42;6.82;;;4.30;;
52102;SDS011;38101;53.126;6.878;2023-08-12T02:21:07;6.35;;;4.35;;
52102;SDS011;38101;53.126;6.878;2023-08-12T02:23:33;7.40;;;4.70;;
52102;SDS011;38101;53.126;6.878;2023-08-12T02:25:59;8.32;;;5.10;;
52102;SDS011;38101;53.126;6.878;2023-08-12T02:28:25;7.97;;;5.28;;
52102;SDS011;38101;53.126;6.878;2023-08-12T02:30:51;7.88;;;5.30;;
52102;SDS011;38101;53.126;6.878;2023-08-12T02:33:16;8.38;;;5.30;;
52102;SDS011;38101;53.126;6.878;2023-08-12T02:35:42;7.95;;;6.03;;
52102;SDS011;38101;53.126;6.878;2023-08-12T02:38:07;7.35;;;5.50;;
52102;SDS011;38101;53.126;6.878;2023-08-12T02:40:33;9.05;;;5.95;;
52102;SDS011;38101;53.126;6.878;2023-08-12T02:42:59;8.45;;;5.68;;
52102;SDS011;38101;53.126;6.878;2023-08-12T02:45:24;7.38;;;5.82;;
52102;SDS011;38101;53.126;6.878;2023-08-12T02:47:50;8.82;;;5.57;;
52102;SDS011;38101;53.126;6.878;2023-08-12T02:50:16;8.88;;;5.95;;
52102;SDS011;38101;53.126;6.878;2023-08-12T02:52:41;9.23;;;5.45;;
52102;SDS011;38101;53.126;6.878;2023-08-12T02:55:07;9.73;;;6.10;;
52102;SDS011;38101;53.126;6.878;2023-08-12T02:57:33;10.60;;;6.40;;
52102;SDS011;38101;53.126;6.878;2023-08-12T02:59:59;11.30;;;5.80;;
52102;SDS011;38101;53.126;6.878;2023-08-12T03:02:24;10.65;;;6.10;;
52102;SDS011;38101;53.126;6.878;2023-08-12T03:04:50;7.57;;;5.40;;
52102;SDS011;38101;53.126;6.878;2023-08-12T03:07:16;10.65;;;6.18;;
52102;SDS011;38101;53.126;6.878;2023-08-12T03:09:42;8.57;;;6.07;;
52102;SDS011;38101;53.126;6.878;2023-08-12T03:12:08;9.70;;;5.85;;
52102;SDS011;38101;53.126;6.878;2023-08-12T03:14:33;11.70;;;7.00;;
52102;SDS011;38101;53.126;6.878;2023-08-12T03:16:59;8.60;;;6.03;;
52102;SDS011;38101;53.126;6.878;2023-08-12T03:19:25;9.98;;;6.57;;
52102;SDS011;38101;53.126;6.878;2023-08-12T03:21:50;10.32;;;6.78;;
52102;SDS011;38101;53.126;6.878;2023-08-12T03:24:16;7.72;;;6.20;;
52102;SDS011;38101;53.126;6.878;2023-08-12T03:26:42;10.35;;;7.13;;
52102;SDS011;38101;53.126;6.878;2023-08-12T03:29:07;10.93;;;6.57;;
52102;SDS011;38101;53.126;6.878;2023-08-12T03:31:33;10.93;;;7.30;;
52102;SDS011;38101;53.126;6.878;2023-08-12T03:33:58;10.02;;;7.05;;
52102;SDS011;38101;53.126;6.878;2023-08-12T03:36:24;9.88;;;7.20;;
52102;SDS011;38101;53.126;6.878;2023-08-12T03:38:50;11.18;;;7.15;;
52102;SDS011;38101;53.126;6.878;2023-08-12T03:41:15;9.40;;;7.15;;
52102;SDS011;38101;53.126;6.878;2023-08-12T03:43:41;12.02;;;7.90;;
52102;SDS011;38101;53.126;6.878;2023-08-12T03:46:07;9.98;;;7.20;;
52102;SDS011;38101;53.126;6.878;2023-08-12T03:48:32;9.93;;;7.30;;
52102;SDS011;38101;53.126;6.878;2023-08-12T03:50:58;12.13;;;7.60;;
52102;SDS011;38101;53.126;6.878;2023-08-12T03:53:24;13.30;;;7.78;;
52102;SDS011;38101;53.126;6.878;2023-08-12T03:55:49;11.80;;;8.50;;
52102;SDS011;38101;53.126;6.878;2023-08-12T03:58:15;11.95;;;7.97;;
52102;SDS011;38101;53.126;6.878;2023-08-12T04:00:42;11.15;;;7.57;;
52102;SDS011;38101;53.126;6.878;2023-08-12T04:03:08;13.63;;;8.43;;
52102;SDS011;38101;53.126;6.878;2023-08-12T04:05:34;11.52;;;8.07;;
52102;SDS011;38101;53.126;6.878;2023-08-12T04:08:00;13.38;;;8.55;;
52102;SDS011;38101;53.126;6.878;2023-08-12T04:10:25;10.05;;;7.90;;
52102;SDS011;38101;53.126;6.878;2023-08-12T04:12:51;11.13;;;8.27;;
52102;SDS011;38101;53.126;6.878;2023-08-12T04:15:17;12.57;;;8.85;;
52102;SDS011;38101;53.126;6.878;2023-08-12T04:17:42;11.43;;;8.48;;
52102;SDS011;38101;53.126;6.878;2023-08-12T04:20:08;11.13;;;8.45;;
52102;SDS011;38101;53.126;6.878;2023-08-12T04:22:34;12.63;;;7.97;;
52102;SDS011;38101;53.126;6.878;2023-08-12T04:25:00;13.20;;;8.25;;
52102;SDS011;38101;53.126;6.878;2023-08-12T04:27:25;11.65;;;8.23;;
52102;SDS011;38101;53.126;6.878;2023-08-12T04:29:51;13.60;;;8.40;;
52102;SDS011;38101;53.126;6.878;2023-08-12T04:32:17;12.13;;;7.78;;
52102;SDS011;38101;53.126;6.878;2023-08-12T04:34:42;13.27;;;8.10;;
52102;SDS011;38101;53.126;6.878;2023-08-12T04:37:09;11.77;;;7.85;;
52102;SDS011;38101;53.126;6.878;2023-08-12T04:39:35;12.85;;;8.30;;
52102;SDS011;38101;53.126;6.878;2023-08-12T04:42:01;11.98;;;8.13;;
52102;SDS011;38101;53.126;6.878;2023-08-12T04:44:26;11.07;;;8.18;;
52102;SDS011;38101;53.126;6.878;2023-08-12T04:46:52;12.48;;;9.00;;
52102;SDS011;38101;53.126;6.878;2023-08-12T04:49:17;11.85;;;8.68;;
52102;SDS011;38101;53.126;6.878;2023-08-12T04:51:43;13.60;;;9.10;;
52102;SDS011;38101;53.126;6.878;2023-08-12T04:54:09;12.07;;;8.90;;
52102;SDS011;38101;53.126;6.878;2023-08-12T04:56:34;10.98;;;8.38;;
52102;SDS011;38101;53.126;6.878;2023-08-12T04:59:00;12.45;;;8.32;;
52102;SDS011;38101;53.126;6.878;2023-08-12T05:01:26;12.18;;;8.30;;
52102;SDS011;38101;53.126;6.878;2023-08-12T05:03:52;11.32;;;8.32;;
52102;SDS011;38101;53.126;6.878;2023-08-12T05:06:17;13.55;;;8.75;;
52102;SDS011;38101;53.126;6.878;2023-08-12T05:08:43;12.35;;;8.50;;
52102;SDS011;38101;53.126;6.878;2023-08-12T05:11:09;12.45;;;8.18;;
52102;SDS011;38101;53.126;6.878;2023-08-12T05:13:34;11.50;;;8.35;;
52102;SDS011;38101;53.126;6.878;2023-08-12T05:16:00;11.95;;;8.43;;
52102;SDS011;38101;53.126;6.878;2023-08-12T05:18:25;13.52;;;8.23;;
52102;SDS011;38101;53.126;6.878;2023-08-12T05:20:53;12.15;;;8.52;;
52102;SDS011;38101;53.126;6.878;2023-08-12T05:23:22;11.80;;;8.55;;
52102;SDS011;38101;53.126;6.878;2023-08-12T05:25:48;14.48;;;8.82;;
52102;SDS011;38101;53.126;6.878;2023-08-12T05:28:14;12.48;;;9.15;;
52102;SDS011;38101;53.126;6.878;2023-08-12T05:30:39;13.07;;;9.02;;
52102;SDS011;38101;53.126;6.878;2023-08-12T05:33:05;12.35;;;8.85;;
52102;SDS011;38101;53.126;6.878;2023-08-12T05:35:34;11.70;;;9.05;;
52102;SDS011;38101;53.126;6.878;2023-08-12T05:38:00;12.48;;;8.32;;
52102;SDS011;38101;53.126;6.878;2023-08-12T05:40:27;11.77;;;7.75;;
52102;SDS011;38101;53.126;6.878;2023-08-12T05:42:52;11.43;;;8.50;;
52102;SDS011;38101;53.126;6.878;2023-08-12T05:45:18;14.80;;;8.98;;
52102;SDS011;38101;53.126;6.878;2023-08-12T05:47:44;13.27;;;8.43;;
52102;SDS011;38101;53.126;6.878;2023-08-12T05:50:10;13.45;;;8.90;;
52102;SDS011;38101;53.126;6.878;2023-08-12T05:52:35;14.52;;;9.35;;
52102;SDS011;38101;53.126;6.878;2023-08-12T05:55:01;13.63;;;9.88;;
52102;SDS011;38101;53.126;6.878;2023-08-12T05:57:27;13.02;;;9.10;;
52102;SDS011;38101;53.126;6.878;2023-08-12T05:59:52;12.52;;;8.20;;
52102;SDS011;38101;53.126;6.878;2023-08-12T06:02:18;15.07;;;8.77;;
52102;SDS011;38101;53.126;6.878;2023-08-12T06:04:44;11.50;;;8.65;;
52102;SDS011;38101;53.126;6.878;2023-08-12T06:07:09;12.45;;;8.48;;
52102;SDS011;38101;53.126;6.878;2023-08-12T06:09:35;9.45;;;8.43;;
52102;SDS011;38101;53.126;6.878;2023-08-12T06:12:01;12.65;;;8.60;;
52102;SDS011;38101;53.126;6.878;2023-08-12T06:14:27;11.57;;;8.10;;
52102;SDS011;38101;53.126;6.878;2023-08-12T06:16:53;14.38;;;9.02;;
52102;SDS011;38101;53.126;6.878;2023-08-12T06:19:18;14.70;;;9.82;;
52102;SDS011;38101;53.126;6.878;2023-08-12T06:21:44;13.23;;;9.00;;
52102;SDS011;38101;53.126;6.878;2023-08-12T06:24:10;14.00;;;8.90;;
52102;SDS011;38101;53.126;6.878;2023-08-12T06:26:35;12.80;;;8.93;;
52102;SDS011;38101;53.126;6.878;2023-08-12T06:29:01;12.38;;;9.45;;
52102;SDS011;38101;53.126;6.878;2023-08-12T06:31:26;14.18;;;10.40;;
52102;SDS011;38101;53.126;6.878;2023-08-12T06:33:52;13.85;;;9.73;;
52102;SDS011;38101;53.126;6.878;2023-08-12T06:36:18;12.45;;;9.65;;
52102;SDS011;38101;53.126;6.878;2023-08-12T06:38:43;12.90;;;9.88;;
52102;SDS011;38101;53.126;6.878;2023-08-12T06:41:09;13.98;;;10.65;;
52102;SDS011;38101;53.126;6.878;2023-08-12T06:43:35;13.05;;;10.05;;
52102;SDS011;38101;53.126;6.878;2023-08-12T06:46:00;12.48;;;10.73;;
52102;SDS011;38101;53.126;6.878;2023-08-12T06:48:26;13.65;;;10.55;;
52102;SDS011;38101;53.126;6.878;2023-08-12T06:50:55;15.07;;;11.68;;
52102;SDS011;38101;53.126;6.878;2023-08-12T06:53:21;17.20;;;11.50;;
52102;SDS011;38101;53.126;6.878;2023-08-12T06:55:47;14.48;;;11.32;;
52102;SDS011;38101;53.126;6.878;2023-08-12T06:58:13;16.85;;;12.30;;
52102;SDS011;38101;53.126;6.878;2023-08-12T07:00:40;20.70;;;12.50;;
52102;SDS011;38101;53.126;6.878;2023-08-12T07:03:06;15.00;;;11.95;;
52102;SDS011;38101;53.126;6.878;2023-08-12T07:05:32;16.50;;;11.65;;
52102;SDS011;38101;53.126;6.878;2023-08-12T07:07:57;13.80;;;11.70;;
52102;SDS011;38101;53.126;6.878;2023-08-12T07:10:23;17.77;;;12.45;;
52102;SDS011;38101;53.126;6.878;2023-08-12T07:12:49;14.48;;;11.38;;
52102;SDS011;38101;53.126;6.878;2023-08-12T07:15:14;14.35;;;12.02;;
52102;SDS011;38101;53.126;6.878;2023-08-12T07:17:40;14.13;;;11.13;;
52102;SDS011;38101;53.126;6.878;2023-08-12T07:20:06;14.75;;;12.18;;
52102;SDS011;38101;53.126;6.878;2023-08-12T07:22:32;14.70;;;11.82;;
52102;SDS011;38101;53.126;6.878;2023-08-12T07:24:58;16.95;;;12.13;;
52102;SDS011;38101;53.126;6.878;2023-08-12T07:27:25;16.92;;;12.15;;
52102;SDS011;38101;53.126;6.878;2023-08-12T07:29:51;15.95;;;11.38;;
52102;SDS011;38101;53.126;6.878;2023-08-12T07:32:17;16.17;;;12.23;;
52102;SDS011;38101;53.126;6.878;2023-08-12T07:34:44;14.52;;;11.63;;
52102;SDS011;38101;53.126;6.878;2023-08-12T07:37:10;16.73;;;11.98;;
52102;SDS011;38101;53.126;6.878;2023-08-12T07:39:36;14.43;;;12.18;;
52102;SDS011;38101;53.126;6.878;2023-08-12T07:42:01;16.52;;;11.75;;
52102;SDS011;38101;53.126;6.878;2023-08-12T07:44:28;15.68;;;11.80;;
52102;SDS011;38101;53.126;6.878;2023-08-12T07:46:54;15.18;;;11.82;;
52102;SDS011;38101;53.126;6.878;2023-08-12T07:49:19;16.08;;;12.13;;
52102;SDS011;38101;53.126;6.878;2023-08-12T07:51:45;15.52;;;11.15;;
52102;SDS011;38101;53.126;6.878;2023-08-12T07:54:11;16.30;;;11.02;;
52102;SDS011;38101;53.126;6.878;2023-08-12T07:56:37;15.77;;;12.07;;
52102;SDS011;38101;53.126;6.878;2023-08-12T07:59:03;15.75;;;12.10;;
52102;SDS011;38101;53.126;6.878;2023-08-12T08:01:28;17.02;;;12.32;;
52102;SDS011;38101;53.126;6.878;2023-08-12T08:03:54;15.27;;;11.98;;
52102;SDS011;38101;53.126;6.878;2023-08-12T08:06:20;16.35;;;13.25;;
52102;SDS011;38101;53.126;6.878;2023-08-12T08:08:48;17.50;;;13.55;;
52102;SDS011;38101;53.126;6.878;2023-08-12T08:11:14;16.38;;;12.32;;
52102;SDS011;38101;53.126;6.878;2023-08-12T08:13:40;19.25;;;14.00;;
52102;SDS011;38101;53.126;6.878;2023-08-12T08:16:06;17.08;;;12.60;;
52102;SDS011;38101;53.126;6.878;2023-08-12T08:18:31;17.10;;;14.02;;
52102;SDS011;38101;53.126;6.878;2023-08-12T08:20:57;20.73;;;13.80;;
52102;SDS011;38101;53.126;6.878;2023-08-12T08:23:23;15.73;;;12.70;;
52102;SDS011;38101;53.126;6.878;2023-08-12T08:25:49;16.40;;;13.48;;
52102;SDS011;38101;53.126;6.878;2023-08-12T08:28:14;16.67;;;13.23;;
52102;SDS011;38101;53.126;6.878;2023-08-12T08:30:40;19.67;;;14.75;;
52102;SDS011;38101;53.126;6.878;2023-08-12T08:33:06;17.92;;;14.45;;
52102;SDS011;38101;53.126;6.878;2023-08-12T08:35:31;17.58;;;13.55;;
52102;SDS011;38101;53.126;6.878;2023-08-12T08:37:57;18.33;;;13.82;;
52102;SDS011;38101;53.126;6.878;2023-08-12T08:40:23;15.57;;;13.52;;
52102;SDS011;38101;53.126;6.878;2023-08-12T08:42:51;18.27;;;14.32;;
52102;SDS011;38101;53.126;6.878;2023-08-12T08:45:20;20.83;;;15.07;;
52102;SDS011;38101;53.126;6.878;2023-08-12T08:47:47;19.15;;;14.68;;
52102;SDS011;38101;53.126;6.878;2023-08-12T08:50:14;19.90;;;15.23;;
52102;SDS011;38101;53.126;6.878;2023-08-12T08:52:40;17.05;;;14.43;;
52102;SDS011;38101;53.126;6.878;2023-08-12T08:55:08;17.55;;;13.90;;
52102;SDS011;38101;53.126;6.878;2023-08-12T08:57:34;19.27;;;14.88;;
52102;SDS011;38101;53.126;6.878;2023-08-12T09:00:02;17.60;;;13.80;;
52102;SDS011;38101;53.126;6.878;2023-08-12T09:02:32;15.20;;;13.15;;
52102;SDS011;38101;53.126;6.878;2023-08-12T09:04:58;17.80;;;13.15;;
52102;SDS011;38101;53.126;6.878;2023-08-12T09:07:27;17.75;;;13.60;;
52102;SDS011;38101;53.126;6.878;2023-08-12T09:09:54;18.48;;;12.70;;
52102;SDS011;38101;53.126;6.878;2023-08-12T09:12:21;19.48;;;13.45;;
52102;SDS011;38101;53.126;6.878;2023-08-12T09:14:48;15.35;;;12.88;;
52102;SDS011;38101;53.126;6.878;2023-08-12T09:17:14;16.70;;;12.57;;
52102;SDS011;38101;53.126;6.878;2023-08-12T09:19:39;15.32;;;13.55;;
52102;SDS011;38101;53.126;6.878;2023-08-12T09:22:06;24.83;;;13.98;;
52102;SDS011;38101;53.126;6.878;2023-08-12T09:24:34;15.68;;;12.85;;
52102;SDS011;38101;53.126;6.878;2023-08-12T09:26:59;15.95;;;12.02;;
52102;SDS011;38101;53.126;6.878;2023-08-12T09:29:33;16.67;;;13.55;;
52102;SDS011;38101;53.126;6.878;2023-08-12T09:34:47;18.95;;;13.75;;
52102;SDS011;38101;53.126;6.878;2023-08-12T09:37:15;15.05;;;13.18;;
52102;SDS011;38101;53.126;6.878;2023-08-12T09:39:41;17.92;;;14.02;;
52102;SDS011;38101;53.126;6.878;2023-08-12T09:42:06;17.42;;;13.43;;
52102;SDS011;38101;53.126;6.878;2023-08-12T09:44:34;18.88;;;13.85;;
52102;SDS011;38101;53.126;6.878;2023-08-12T09:47:01;16.17;;;13.02;;
52102;SDS011;38101;53.126;6.878;2023-08-12T09:49:26;15.40;;;12.98;;
52102;SDS011;38101;53.126;6.878;2023-08-12T09:51:53;17.25;;;12.23;;
52102;SDS011;38101;53.126;6.878;2023-08-12T09:54:19;15.98;;;13.00;;
52102;SDS011;38101;53.126;6.878;2023-08-12T09:56:47;14.63;;;12.15;;
52102;SDS011;38101;53.126;6.878;2023-08-12T09:59:14;16.00;;;11.82;;
52102;SDS011;38101;53.126;6.878;2023-08-12T10:01:45;13.82;;;11.95;;
52102;SDS011;38101;53.126;6.878;2023-08-12T10:04:13;15.05;;;11.38;;
52102;SDS011;38101;53.126;6.878;2023-08-12T10:06:42;13.85;;;10.75;;
52102;SDS011;38101;53.126;6.878;2023-08-12T10:09:08;12.57;;;10.50;;
52102;SDS011;38101;53.126;6.878;2023-08-12T10:11:36;13.38;;;10.25;;
52102;SDS011;38101;53.126;6.878;2023-08-12T10:14:03;11.70;;;8.73;;
52102;SDS011;38101;53.126;6.878;2023-08-12T10:16:29;9.30;;;8.05;;
52102;SDS011;38101;53.126;6.878;2023-08-12T10:18:55;9.65;;;7.45;;
52102;SDS011;38101;53.126;6.878;2023-08-12T10:21:23;9.65;;;6.97;;
52102;SDS011;38101;53.126;6.878;2023-08-12T10:23:50;7.97;;;6.65;;
52102;SDS011;38101;53.126;6.878;2023-08-12T10:26:17;9.45;;;6.88;;
52102;SDS011;38101;53.126;6.878;2023-08-12T10:28:43;9.15;;;6.60;;
52102;SDS011;38101;53.126;6.878;2023-08-12T10:31:10;7.63;;;6.45;;
52102;SDS011;38101;53.126;6.878;2023-08-12T10:33:40;7.97;;;6.28;;
52102;SDS011;38101;53.126;6.878;2023-08-12T10:36:06;7.97;;;5.80;;
52102;SDS011;38101;53.126;6.878;2023-08-12T10:38:33;8.55;;;5.45;;
52102;SDS011;38101;53.126;6.878;2023-08-12T10:46:22;6.78;;;5.00;;
52102;SDS011;38101;53.126;6.878;2023-08-12T10:48:59;7.32;;;5.43;;
52102;SDS011;38101;53.126;6.878;2023-08-12T11:04:50;6.32;;;4.82;;
52102;SDS011;38101;53.126;6.878;2023-08-12T11:07:33;6.10;;;4.70;;
52102;SDS011;38101;53.126;6.878;2023-08-12T11:12:39;7.90;;;4.82;;
52102;SDS011;38101;53.126;6.878;2023-08-12T11:15:06;5.88;;;4.45;;
52102;SDS011;38101;53.126;6.878;2023-08-12T11:17:33;5.85;;;4.22;;
52102;SDS011;38101;53.126;6.878;2023-08-12T11:20:04;6.72;;;4.30;;
52102;SDS011;38101;53.126;6.878;2023-08-12T11:22:32;5.75;;;4.68;;
52102;SDS011;38101;53.126;6.878;2023-08-12T11:25:01;5.85;;;4.35;;
52102;SDS011;38101;53.126;6.878;2023-08-12T11:27:34;7.07;;;4.55;;
52102;SDS011;38101;53.126;6.878;2023-08-12T11:30:02;5.28;;;4.13;;
52102;SDS011;38101;53.126;6.878;2023-08-12T11:32:28;4.88;;;4.30;;
52102;SDS011;38101;53.126;6.878;2023-08-12T11:34:54;5.68;;;4.13;;
52102;SDS011;38101;53.126;6.878;2023-08-12T11:37:20;5.38;;;3.50;;
52102;SDS011;38101;53.126;6.878;2023-08-12T11:39:46;4.57;;;3.72;;
52102;SDS011;38101;53.126;6.878;2023-08-12T11:42:14;4.32;;;3.05;;
52102;SDS011;38101;53.126;6.878;2023-08-12T11:44:40;6.43;;;3.10;;
52102;SDS011;38101;53.126;6.878;2023-08-12T11:47:07;5.03;;;3.50;;
52102;SDS011;38101;53.126;6.878;2023-08-12T11:49:32;4.15;;;2.95;;
52102;SDS011;38101;53.126;6.878;2023-08-12T11:51:58;4.70;;;2.97;;
52102;SDS011;38101;53.126;6.878;2023-08-12T11:54:25;3.83;;;2.80;;
52102;SDS011;38101;53.126;6.878;2023-08-12T11:56:51;4.22;;;3.00;;
52102;SDS011;38101;53.126;6.878;2023-08-12T11:59:17;4.10;;;3.00;;
52102;SDS011;38101;53.126;6.878;2023-08-12T12:01:46;4.40;;;3.08;;
52102;SDS011;38101;53.126;6.878;2023-08-12T12:04:14;4.60;;;3.10;;
52102;SDS011;38101;53.126;6.878;2023-08-12T12:06:41;4.63;;;2.78;;
52102;SDS011;38101;53.126;6.878;2023-08-12T12:09:07;4.95;;;3.00;;
52102;SDS011;38101;53.126;6.878;2023-08-12T12:11:38;4.38;;;2.58;;
52102;SDS011;38101;53.126;6.878;2023-08-12T12:14:05;3.45;;;2.40;;
52102;SDS011;38101;53.126;6.878;2023-08-12T12:19:24;4.53;;;2.83;;
52102;SDS011;38101;53.126;6.878;2023-08-12T12:21:50;3.30;;;2.20;;
52102;SDS011;38101;53.126;6.878;2023-08-12T12:24:19;2.95;;;2.00;;
52102;SDS011;38101;53.126;6.878;2023-08-12T12:26:45;3.08;;;1.75;;
52102;SDS011;38101;53.126;6.878;2023-08-12T12:29:12;2.08;;;1.45;;
52102;SDS011;38101;53.126;6.878;2023-08-12T12:31:38;2.85;;;1.98;;
52102;SDS011;38101;53.126;6.878;2023-08-12T12:34:05;3.10;;;2.00;;
52102;SDS011;38101;53.126;6.878;2023-08-12T12:36:35;3.00;;;2.13;;
52102;SDS011;38101;53.126;6.878;2023-08-12T12:39:02;4.35;;;2.70;;
52102;SDS011;38101;53.126;6.878;2023-08-12T12:41:29;3.10;;;1.98;;
52102;SDS011;38101;53.126;6.878;2023-08-12T12:43:55;2.33;;;1.73;;
52102;SDS011;38101;53.126;6.878;2023-08-12T12:46:21;2.00;;;1.65;;
52102;SDS011;38101;53.126;6.878;2023-08-12T12:48:47;2.80;;;1.90;;
52102;SDS011;38101;53.126;6.878;2023-08-12T12:51:12;3.97;;;2.42;;
52102;SDS011;38101;53.126;6.878;2023-08-12T12:53:38;4.15;;;2.25;;
52102;SDS011;38101;53.126;6.878;2023-08-12T12:56:05;8.85;;;2.33;;
52102;SDS011;38101;53.126;6.878;2023-08-12T12:58:31;7.38;;;2.47;;
52102;SDS011;38101;53.126;6.878;2023-08-12T13:01:02;5.25;;;2.60;;
52102;SDS011;38101;53.126;6.878;2023-08-12T13:03:29;4.50;;;2.60;;
52102;SDS011;38101;53.126;6.878;2023-08-12T13:05:55;4.57;;;2.67;;
52102;SDS011;38101;53.126;6.878;2023-08-12T13:08:21;5.38;;;2.70;;
52102;SDS011;38101;53.126;6.878;2023-08-12T13:10:48;6.13;;;2.55;;
52102;SDS011;38101;53.126;6.878;2023-08-12T13:13:14;4.55;;;2.42;;
52102;SDS011;38101;53.126;6.878;2023-08-12T13:15:41;4.63;;;2.80;;
52102;SDS011;38101;53.126;6.878;2023-08-12T13:18:07;5.70;;;2.75;;
52102;SDS011;38101;53.126;6.878;2023-08-12T13:20:33;4.55;;;2.78;;
52102;SDS011;38101;53.126;6.878;2023-08-12T13:23:00;5.20;;;2.58;;
52102;SDS011;38101;53.126;6.878;2023-08-12T13:25:27;5.97;;;2.65;;
52102;SDS011;38101;53.126;6.878;2023-08-12T13:27:55;12.98;;;8.32;;
52102;SDS011;38101;53.126;6.878;2023-08-12T13:30:21;4.53;;;2.75;;
52102;SDS011;38101;53.126;6.878;2023-08-12T13:32:46;5.28;;;2.38;;
52102;SDS011;38101;53.126;6.878;2023-08-12T13:35:12;6.28;;;2.55;;
52102;SDS011;38101;53.126;6.878;2023-08-12T13:37:38;6.00;;;2.67;;
52102;SDS011;38101;53.126;6.878;2023-08-12T13:40:04;6.75;;;3.00;;
52102;SDS011;38101;53.126;6.878;2023-08-12T13:42:30;7.40;;;2.80;;
52102;SDS011;38101;53.126;6.878;2023-08-12T13:44:55;6.00;;;2.60;;
52102;SDS011;38101;53.126;6.878;2023-08-12T13:47:21;4.60;;;2.92;;
52102;SDS011;38101;53.126;6.878;2023-08-12T13:49:47;5.38;;;2.83;;
52102;SDS011;38101;53.126;6.878;2023-08-12T13:52:12;4.85;;;2.60;;
52102;SDS011;38101;53.126;6.878;2023-08-12T13:54:38;7.22;;;3.13;;
52102;SDS011;38101;53.126;6.878;2023-08-12T13:57:04;6.72;;;2.80;;
52102;SDS011;38101;53.126;6.878;2023-08-12T13:59:30;7.50;;;2.70;;
52102;SDS011;38101;53.126;6.878;2023-08-12T14:01:56;7.82;;;2.60;;
52102;SDS011;38101;53.126;6.878;2023-08-12T14:04:21;6.95;;;2.70;;
52102;SDS011;38101;53.126;6.878;2023-08-12T14:06:47;5.95;;;2.47;;
52102;SDS011;38101;53.126;6.878;2023-08-12T14:09:13;5.70;;;2.65;;
52102;SDS011;38101;53.126;6.878;2023-08-12T14:11:39;5.47;;;2.78;;
52102;SDS011;38101;53.126;6.878;2023-08-12T14:14:05;7.07;;;2.83;;
52102;SDS011;38101;53.126;6.878;2023-08-12T14:16:31;6.68;;;2.90;;
52102;SDS011;38101;53.126;6.878;2023-08-12T14:18:57;5.65;;;2.60;;
52102;SDS011;38101;53.126;6.878;2023-08-12T14:21:22;6.75;;;2.63;;
52102;SDS011;38101;53.126;6.878;2023-08-12T14:23:48;9.13;;;3.03;;
52102;SDS011;38101;53.126;6.878;2023-08-12T14:26:14;6.63;;;3.10;;
52102;SDS011;38101;53.126;6.878;2023-08-12T14:28:40;5.22;;;2.90;;
52102;SDS011;38101;53.126;6.878;2023-08-12T14:31:05;7.30;;;3.22;;
52102;SDS011;38101;53.126;6.878;2023-08-12T14:33:31;7.13;;;3.10;;
52102;SDS011;38101;53.126;6.878;2023-08-12T14:35:57;8.02;;;2.72;;
52102;SDS011;38101;53.126;6.878;2023-08-12T14:38:23;6.38;;;3.05;;
52102;SDS011;38101;53.126;6.878;2023-08-12T14:40:49;5.65;;;2.58;;
52102;SDS011;38101;53.126;6.878;2023-08-12T14:43:15;6.70;;;2.70;;
52102;SDS011;38101;53.126;6.878;2023-08-12T14:45:41;4.78;;;2.58;;
52102;SDS011;38101;53.126;6.878;2023-08-12T14:48:09;7.82;;;3.60;;
52102;SDS011;38101;53.126;6.878;2023-08-12T14:50:36;6.40;;;2.72;;
52102;SDS011;38101;53.126;6.878;2023-08-12T14:53:03;7.28;;;2.80;;
52102;SDS011;38101;53.126;6.878;2023-08-12T14:55:29;7.93;;;2.88;;
52102;SDS011;38101;53.126;6.878;2023-08-12T14:57:55;6.40;;;2.70;;
52102;SDS011;38101;53.126;6.878;2023-08-12T15:00:21;5.95;;;2.42;;